CheckWX is a tool to help pilots better visualize weather data.  It is not intended as a substitute for an official pre-flight weather briefing.

07:42:09 UTC

YSRI TAF
RAAF Base Richmond Airport
Richmond, Australia
TAF YSRI 200512Z 2006/2106 13008KT 9999 BKN050 BECMG 2008/2010 VRB03KT 9999 SCT040 FM202200 22008KT 9999 FEW030 PROB30 2016/2022 0500 FG

Jun-20@
06:00 UTC

Jun-20 @ 06:00 UTC

Jun-20@
08:00 UTC

Jun-20 @ 08:00 UTC

TAF YSRI 200512Z 2006/2106 13008KT 9999 BKN050
Wind
  • 130° at 8 KTS
Cloud Levels
  • Broken at 5,000' AGL

Jun-20@
08:00 UTC

Jun-20 @ 08:00 UTC

Jun-20@
22:00 UTC

Jun-20 @ 22:00 UTC

BECMG 2008/2010 VRB03KT 9999 SCT040

Becoming

Becoming Conditions expected by Thu, Jun 20, 2019 @ 10:00 UTC

Wind
  • Variable at 3 KTS
Cloud Levels
  • Scattered at 4,000' AGL

Jun-20@
16:00 UTC

Jun-20 @ 16:00 UTC

Jun-20@
22:00 UTC

Jun-20 @ 22:00 UTC

PROB30 2016/2022 0500 FG

Probable - 30% Likelihood

Probable - 30% Likelihood during this time.

Conditions
Fog

Jun-20@
22:00 UTC

Jun-20 @ 22:00 UTC

Jun-21@
06:00 UTC

Jun-21 @ 06:00 UTC

FM202200 22008KT 9999 FEW030

From

From Standard forecast or significant change

Wind
  • 220° at 8 KTS
Cloud Levels
  • Few at 3,000' AGL